Time;durP1;ratioP1;P1;durP2;ratioP2;P2;SDS_P1;SDS_P2;PMS_P1;PMS_P2;Temp;Humidity;BMP_temperature;BMP_pressure;BME280_temperature;BME280_humidity;BME280_pressure;Samples;Min_cycle;Max_cycle;Signal;HPM_P1;HPM_P2
2021/08/18 00:02:04;;;;;;;7.57;6.13;;;14.90;99.90;;;;;;4974936;28;20030;-91
2021/08/18 00:04:30;;;;;;;8.02;6.38;;;14.90;99.90;;;;;;5008564;28;20037;-93
2021/08/18 00:06:56;;;;;;;7.53;5.25;;;14.90;99.90;;;;;;5008029;28;20058;-92
2021/08/18 00:09:22;;;;;;;7.88;5.78;;;14.90;99.90;;;;;;5008169;28;20483;-92
2021/08/18 00:11:47;;;;;;;8.23;6.22;;;15.00;99.90;;;;;;5008192;28;20058;-93
2021/08/18 00:14:33;;;;;;;9.23;6.82;;;14.90;99.90;;;;;;5009340;28;20038;-96
2021/08/18 00:17:01;;;;;;;11.65;7.18;;;14.90;99.90;;;;;;5008036;28;20026;-93
2021/08/18 00:19:27;;;;;;;12.40;7.97;;;14.90;99.90;;;;;;4975921;28;20034;-94
2021/08/18 00:21:53;;;;;;;10.18;7.55;;;15.00;99.90;;;;;;4977150;28;20106;-96
2021/08/18 00:24:18;;;;;;;12.00;8.52;;;15.00;99.90;;;;;;4995342;23;20058;-94
2021/08/18 00:26:44;;;;;;;11.38;8.70;;;15.00;99.90;;;;;;4977500;28;20509;-93
2021/08/18 00:29:11;;;;;;;15.65;8.18;;;15.00;99.90;;;;;;4975325;28;20038;-94
2021/08/18 00:31:37;;;;;;;14.38;8.63;;;15.00;99.90;;;;;;4975327;28;20027;-94
2021/08/18 00:34:04;;;;;;;13.65;7.50;;;15.00;99.90;;;;;;4963643;28;20060;-90
2021/08/18 00:36:30;;;;;;;14.10;8.52;;;15.00;99.90;;;;;;4973794;28;20061;-90
2021/08/18 00:38:56;;;;;;;16.05;9.88;;;15.00;99.90;;;;;;4972735;28;20093;-93
2021/08/18 00:41:22;;;;;;;10.75;7.45;;;15.00;99.90;;;;;;4956244;28;20035;-94
2021/08/18 00:43:49;;;;;;;11.35;7.90;;;15.00;99.90;;;;;;4956438;28;20034;-93
2021/08/18 00:46:15;;;;;;;13.98;9.13;;;15.00;99.90;;;;;;4955854;28;20158;-93
2021/08/18 00:48:41;;;;;;;13.98;8.80;;;15.00;99.90;;;;;;4956138;28;20482;-91
2021/08/18 00:51:06;;;;;;;13.32;8.40;;;15.00;99.90;;;;;;4955928;28;20468;-92
2021/08/18 00:53:34;;;;;;;13.23;8.68;;;15.00;99.90;;;;;;4955944;28;20039;-93
2021/08/18 00:56:00;;;;;;;12.95;8.35;;;15.00;99.90;;;;;;4972609;28;20027;-94
2021/08/18 00:58:27;;;;;;;10.13;7.57;;;15.00;99.90;;;;;;4955676;28;20038;-95
2021/08/18 01:00:53;;;;;;;16.17;8.88;;;15.00;99.90;;;;;;4957433;28;20037;-93
2021/08/18 01:03:19;;;;;;;12.43;7.40;;;15.00;99.90;;;;;;4955998;28;20046;-94
2021/08/18 01:05:44;;;;;;;13.63;7.75;;;15.00;99.90;;;;;;4972056;28;20472;-95
2021/08/18 01:08:10;;;;;;;10.93;7.43;;;15.00;99.90;;;;;;4972797;28;20046;-95
2021/08/18 01:10:36;;;;;;;13.18;7.95;;;15.00;99.90;;;;;;4971977;28;20031;-95
2021/08/18 01:13:04;;;;;;;11.63;7.10;;;15.00;99.90;;;;;;4986266;28;20093;-92
2021/08/18 01:15:31;;;;;;;14.32;8.18;;;15.00;99.90;;;;;;5007912;28;20092;-96
2021/08/18 01:17:59;;;;;;;12.50;6.57;;;15.00;99.90;;;;;;5006495;28;20030;-95
2021/08/18 01:20:33;;;;;;;12.13;6.57;;;14.90;99.90;;;;;;4990851;28;20034;-95
2021/08/18 01:23:01;;;;;;;11.15;6.30;;;14.90;99.90;;;;;;4991272;28;20037;-93
2021/08/18 01:25:30;;;;;;;11.35;7.03;;;14.90;99.90;;;;;;4990503;28;20078;-96
2021/08/18 01:27:59;;;;;;;11.85;6.70;;;15.00;99.90;;;;;;4975125;28;20050;-93
2021/08/18 01:30:26;;;;;;;16.33;7.45;;;15.00;99.90;;;;;;4979828;28;20105;-96
2021/08/18 01:32:58;;;;;;;10.23;6.05;;;14.90;99.90;;;;;;4955402;28;20034;-96
2021/08/18 01:35:30;;;;;;;9.45;5.65;;;14.90;99.90;;;;;;4957211;28;20027;-93
2021/08/18 01:37:57;;;;;;;9.23;5.18;;;15.00;99.90;;;;;;4955087;28;20038;-94
2021/08/18 01:40:23;;;;;;;11.65;6.38;;;14.90;99.90;;;;;;4972600;28;20316;-96
2021/08/18 01:42:50;;;;;;;11.30;6.28;;;14.90;99.90;;;;;;4957706;28;20026;-93
2021/08/18 01:45:23;;;;;;;11.27;6.85;;;15.00;99.90;;;;;;4954400;28;20101;-94
2021/08/18 01:47:50;;;;;;;9.55;6.43;;;14.90;99.90;;;;;;4970548;28;20089;-94
2021/08/18 01:50:17;;;;;;;13.63;6.90;;;14.90;99.90;;;;;;4955607;28;20089;-94
2021/08/18 01:52:44;;;;;;;10.77;6.68;;;14.90;99.90;;;;;;4954706;28;20037;-95
2021/08/18 01:55:10;;;;;;;10.25;6.03;;;14.90;99.90;;;;;;4954361;28;20113;-93
2021/08/18 01:57:39;;;;;;;10.80;4.85;;;15.00;99.90;;;;;;4970402;28;20377;-95
2021/08/18 02:00:06;;;;;;;11.45;7.15;;;15.00;99.90;;;;;;4974714;28;20065;-94
2021/08/18 02:02:37;;;;;;;11.50;7.10;;;15.00;99.90;;;;;;4971887;28;20058;-95
2021/08/18 02:05:10;;;;;;;13.65;5.68;;;15.00;99.90;;;;;;4955081;28;20060;-96
2021/08/18 02:07:37;;;;;;;12.50;6.85;;;15.00;99.90;;;;;;4955157;28;20031;-96
2021/08/18 02:10:09;;;;;;;11.13;6.50;;;15.00;99.90;;;;;;4954458;28;20039;-95
2021/08/18 02:12:36;;;;;;;13.57;7.45;;;15.00;99.90;;;;;;4954743;28;20093;-96
2021/08/18 02:15:12;;;;;;;18.75;10.73;;;15.00;99.90;;;;;;4955489;28;20039;-96
2021/08/18 02:17:38;;;;;;;12.63;6.95;;;15.00;99.90;;;;;;4968125;28;20035;-94
2021/08/18 02:20:06;;;;;;;12.82;6.95;;;15.00;99.90;;;;;;4989380;28;20525;-95
2021/08/18 02:22:32;;;;;;;19.83;9.60;;;15.00;99.90;;;;;;4973433;28;20037;-92
2021/08/18 02:24:57;;;;;;;14.50;9.35;;;15.00;99.90;;;;;;4973293;28;20078;-93
2021/08/18 02:27:24;;;;;;;13.18;7.68;;;15.00;99.90;;;;;;4973096;28;20057;-96
2021/08/18 02:29:50;;;;;;;14.07;9.15;;;15.00;99.90;;;;;;4970048;28;20054;-95
2021/08/18 02:32:16;;;;;;;18.83;9.95;;;15.00;99.90;;;;;;4970171;28;20031;-93
2021/08/18 02:34:41;;;;;;;19.92;10.80;;;15.00;99.90;;;;;;4971037;28;20030;-94
2021/08/18 02:37:07;;;;;;;15.13;9.90;;;15.00;99.90;;;;;;4954212;28;20081;-94
2021/08/18 02:39:33;;;;;;;19.98;10.73;;;15.00;99.90;;;;;;4970309;28;20058;-93
2021/08/18 02:41:59;;;;;;;19.33;9.38;;;15.00;99.90;;;;;;4953912;28;20035;-95
2021/08/18 02:44:24;;;;;;;14.55;9.05;;;15.00;99.90;;;;;;4969845;28;20064;-93
2021/08/18 02:46:50;;;;;;;15.73;9.98;;;14.90;99.90;;;;;;4969963;28;20187;-95
2021/08/18 02:49:26;;;;;;;17.02;9.73;;;15.00;99.90;;;;;;4974036;28;20070;-96
2021/08/18 02:51:52;;;;;;;17.73;8.50;;;14.90;99.90;;;;;;4971613;28;20103;-95
2021/08/18 02:54:18;;;;;;;14.05;7.85;;;14.90;99.90;;;;;;4970615;28;20034;-94
2021/08/18 02:56:43;;;;;;;14.70;8.70;;;14.90;99.90;;;;;;4970009;28;20050;-96
2021/08/18 02:59:11;;;;;;;14.38;7.95;;;14.90;99.90;;;;;;4995796;23;20039;-95
2021/08/18 03:01:43;;;;;;;15.13;8.50;;;14.90;99.90;;;;;;4955411;28;20070;-96
2021/08/18 03:04:09;;;;;;;12.30;7.55;;;14.90;99.90;;;;;;4957763;28;20056;-95
2021/08/18 03:06:34;;;;;;;13.20;7.97;;;15.00;99.90;;;;;;4958714;28;20073;-95
2021/08/18 03:09:03;;;;;;;11.18;7.38;;;14.90;99.90;;;;;;4954636;28;20062;-96
2021/08/18 03:11:29;;;;;;;9.15;5.78;;;14.90;99.90;;;;;;4954510;28;20031;-96
2021/08/18 03:13:55;;;;;;;11.32;6.43;;;14.90;99.90;;;;;;4954056;28;20035;-94
2021/08/18 03:16:21;;;;;;;8.85;5.80;;;14.90;99.90;;;;;;4950392;29;20054;-95
2021/08/18 03:18:48;;;;;;;9.15;5.22;;;14.90;99.90;;;;;;4950799;29;20031;-93
2021/08/18 03:21:13;;;;;;;7.07;4.78;;;14.90;99.90;;;;;;4950451;29;20538;-93
2021/08/18 03:23:39;;;;;;;7.07;4.18;;;14.80;99.90;;;;;;4950299;29;20090;-94
2021/08/18 03:26:05;;;;;;;9.25;5.22;;;14.90;99.90;;;;;;4950573;29;20361;-93
2021/08/18 03:28:31;;;;;;;9.43;5.40;;;14.80;99.90;;;;;;4952574;29;20071;-95
2021/08/18 03:30:57;;;;;;;8.23;4.68;;;14.80;99.90;;;;;;4950234;29;20046;-96
2021/08/18 03:33:23;;;;;;;7.57;4.72;;;14.80;99.90;;;;;;4952675;29;20067;-94
2021/08/18 03:35:51;;;;;;;6.70;4.50;;;14.80;99.90;;;;;;4955638;29;20046;-93
2021/08/18 03:38:17;;;;;;;9.52;4.63;;;14.90;99.90;;;;;;4955237;29;20043;-96
2021/08/18 03:40:46;;;;;;;10.73;4.05;;;14.80;99.90;;;;;;4955298;29;20103;-95
2021/08/18 03:43:12;;;;;;;6.60;4.18;;;14.80;99.90;;;;;;4957340;29;20035;-93
2021/08/18 03:45:38;;;;;;;8.73;4.53;;;14.80;99.90;;;;;;4953943;29;20536;-96
2021/08/18 03:48:04;;;;;;;7.07;3.95;;;14.80;99.90;;;;;;4954118;29;20059;-94
2021/08/18 03:50:30;;;;;;;5.97;3.17;;;14.80;99.90;;;;;;4954285;29;20054;-96
2021/08/18 03:52:55;;;;;;;3.75;2.35;;;14.80;99.90;;;;;;4938572;29;20031;-96
2021/08/18 03:55:21;;;;;;;7.93;3.92;;;14.80;99.90;;;;;;4955445;29;20035;-94
2021/08/18 03:57:47;;;;;;;6.55;3.22;;;14.80;99.90;;;;;;4953619;29;20062;-94
2021/08/18 04:00:16;;;;;;;5.55;3.30;;;14.80;99.90;;;;;;4953973;29;20047;-95
2021/08/18 04:02:42;;;;;;;6.60;3.60;;;14.80;99.90;;;;;;4954012;29;20046;-95
2021/08/18 04:05:11;;;;;;;6.75;3.05;;;14.70;99.90;;;;;;4956135;29;20031;-96
2021/08/18 04:07:37;;;;;;;7.80;3.17;;;14.80;99.90;;;;;;4956528;29;20039;-96
2021/08/18 04:10:07;;;;;;;6.32;3.28;;;14.70;99.90;;;;;;4954315;29;20043;-95
2021/08/18 04:12:54;;;;;;;4.30;2.40;;;14.70;99.90;;;;;;4957486;29;20027;-96
2021/08/18 04:15:25;;;;;;;6.32;2.13;;;14.70;99.90;;;;;;4954586;29;20043;-95
2021/08/18 04:18:17;;;;;;;4.68;2.25;;;14.70;99.90;;;;;;4966823;29;20110;-95
2021/08/18 04:20:43;;;;;;;7.00;2.83;;;14.70;99.90;;;;;;4939102;29;20121;-96
2021/08/18 04:23:09;;;;;;;5.43;2.10;;;14.70;99.90;;;;;;4954446;29;20039;-95
2021/08/18 04:25:37;;;;;;;9.35;2.80;;;14.60;99.90;;;;;;4937770;29;20051;-96
2021/08/18 04:28:03;;;;;;;7.38;2.72;;;14.70;99.90;;;;;;4939336;29;20075;-95
2021/08/18 04:30:29;;;;;;;5.30;2.35;;;14.60;99.90;;;;;;4949818;28;20027;-94
2021/08/18 04:32:54;;;;;;;11.20;3.28;;;14.60;99.90;;;;;;4957796;28;20038;-95
2021/08/18 04:35:21;;;;;;;4.82;2.25;;;14.70;99.90;;;;;;4957664;28;20027;-95
2021/08/18 04:38:05;;;;;;;4.57;1.42;;;14.70;99.90;;;;;;4959702;28;20090;-96
2021/08/18 04:40:31;;;;;;;2.97;1.42;;;14.70;99.90;;;;;;4956744;28;20050;-96
2021/08/18 04:43:00;;;;;;;5.28;2.10;;;14.70;99.90;;;;;;4989883;28;20057;-96
2021/08/18 04:45:30;;;;;;;4.13;1.20;;;14.70;99.90;;;;;;4956110;28;20102;-96
2021/08/18 04:47:55;;;;;;;5.30;2.22;;;14.70;99.90;;;;;;4959732;28;20071;-96
2021/08/18 04:50:21;;;;;;;2.90;1.30;;;14.70;99.90;;;;;;4957336;28;20054;-95
2021/08/18 04:52:47;;;;;;;4.10;1.77;;;14.70;99.90;;;;;;4957277;28;20086;-96
2021/08/18 04:55:15;;;;;;;2.95;1.35;;;14.70;99.90;;;;;;4955811;28;20031;-96
2021/08/18 04:57:42;;;;;;;6.03;2.15;;;14.70;99.90;;;;;;4975383;28;20041;-96
2021/08/18 05:00:08;;;;;;;4.97;1.67;;;14.60;99.90;;;;;;4959406;28;20066;-96
2021/08/18 05:02:40;;;;;;;4.00;1.90;;;14.60;99.90;;;;;;4957271;28;20035;-96
2021/08/18 05:05:08;;;;;;;3.92;1.15;;;14.60;99.90;;;;;;4971104;28;20031;-93
2021/08/18 05:07:50;;;;;;;8.70;2.88;;;14.70;99.90;;;;;;5081289;23;20069;-96
2021/08/18 05:10:29;;;;;;;3.78;1.20;;;14.70;99.90;;;;;;4963089;28;20136;-96
2021/08/18 05:12:56;;;;;;;2.88;1.10;;;14.70;99.90;;;;;;4969383;28;20138;-96
2021/08/18 05:15:32;;;;;;;3.80;1.50;;;14.80;99.90;;;;;;4970452;28;20037;-96
2021/08/18 05:20:54;;;;;;;4.05;1.95;;;14.80;99.90;;;;;;4995302;23;20056;-96
2021/08/18 05:23:41;;;;;;;3.95;2.15;;;14.80;99.90;;;;;;4978516;28;20025;-96
2021/08/18 05:26:26;;;;;;;5.70;2.30;;;14.80;99.90;;;;;;4978991;28;20096;-96
2021/08/18 05:29:21;;;;;;;5.68;2.13;;;14.90;99.90;;;;;;4995986;28;20065;-96
2021/08/18 05:31:57;;;;;;;4.63;2.60;;;14.90;99.90;;;;;;4980421;28;20062;-96
2021/08/18 05:34:24;;;;;;;5.50;1.48;;;14.90;99.90;;;;;;4977492;28;20041;-96
2021/08/18 05:37:12;;;;;;;3.33;1.50;;;15.00;99.90;;;;;;5012562;28;20034;-96
2021/08/18 05:39:56;;;;;;;4.43;2.67;;;15.00;99.90;;;;;;4976678;28;20054;-96
2021/08/18 05:42:25;;;;;;;6.93;2.70;;;15.10;99.90;;;;;;4997672;28;20028;-95
2021/08/18 05:45:01;;;;;;;4.15;2.42;;;15.00;99.90;;;;;;4977746;28;20250;-96
2021/08/18 05:47:36;;;;;;;3.13;1.75;;;15.10;99.90;;;;;;4978076;28;20034;-96
2021/08/18 05:50:02;;;;;;;3.65;1.30;;;15.10;99.90;;;;;;4990676;28;20034;-96
2021/08/18 05:52:28;;;;;;;4.18;2.03;;;15.10;99.90;;;;;;4989950;23;20051;-96
2021/08/18 05:54:55;;;;;;;3.05;1.77;;;15.20;99.90;;;;;;4992774;28;20042;-96
2021/08/18 05:57:21;;;;;;;5.30;1.92;;;15.20;99.90;;;;;;4990470;28;20053;-95
2021/08/18 05:59:48;;;;;;;5.13;1.95;;;15.20;99.90;;;;;;5022271;23;20093;-96
2021/08/18 06:02:14;;;;;;;3.72;1.65;;;15.20;99.90;;;;;;5010276;28;20086;-96
2021/08/18 06:04:40;;;;;;;5.78;1.83;;;15.30;99.90;;;;;;4992538;28;20034;-96
2021/08/18 06:07:06;;;;;;;4.07;1.45;;;15.30;99.90;;;;;;4991976;28;20102;-96
2021/08/18 06:09:32;;;;;;;7.00;1.60;;;15.30;99.90;;;;;;5006696;28;20038;-95
2021/08/18 06:11:59;;;;;;;4.75;2.53;;;15.40;99.90;;;;;;4993961;28;20031;-94
2021/08/18 06:14:34;;;;;;;4.65;2.17;;;15.40;99.90;;;;;;5011042;28;20029;-96
2021/08/18 06:17:00;;;;;;;3.83;1.52;;;15.40;99.90;;;;;;4987141;28;20047;-96
2021/08/18 06:19:29;;;;;;;3.90;1.60;;;15.50;99.90;;;;;;5005360;28;20030;-94
2021/08/18 06:22:00;;;;;;;4.00;1.98;;;15.60;99.90;;;;;;5044549;23;20053;-96
2021/08/18 06:24:28;;;;;;;3.22;1.65;;;15.50;99.90;;;;;;5030849;28;20013;-96
2021/08/18 06:26:57;;;;;;;4.05;1.90;;;15.60;99.90;;;;;;5034255;28;20026;-96
2021/08/18 06:29:31;;;;;;;5.32;2.60;;;15.60;99.90;;;;;;5032533;28;20041;-96
2021/08/18 06:32:09;;;;;;;4.15;1.95;;;15.70;99.90;;;;;;5034264;28;20014;-95
2021/08/18 06:34:37;;;;;;;4.85;2.25;;;15.70;99.90;;;;;;5015158;28;20041;-96
2021/08/18 06:37:06;;;;;;;8.30;2.67;;;15.80;99.90;;;;;;5049468;28;20449;-96
2021/08/18 06:39:34;;;;;;;4.18;1.88;;;15.80;99.90;;;;;;5013508;28;20045;-96
2021/08/18 06:42:00;;;;;;;4.63;2.22;;;15.90;99.90;;;;;;5034790;28;20029;-96
2021/08/18 06:44:27;;;;;;;3.75;2.22;;;15.90;99.90;;;;;;5036158;28;20024;-96
2021/08/18 06:46:53;;;;;;;5.30;1.88;;;15.90;99.90;;;;;;5032679;28;20080;-96
2021/08/18 06:49:19;;;;;;;5.97;1.40;;;16.00;99.90;;;;;;5033859;28;20056;-95
2021/08/18 06:51:46;;;;;;;5.45;2.25;;;16.00;99.90;;;;;;5026113;23;20114;-96
2021/08/18 06:54:12;;;;;;;7.45;2.72;;;15.90;99.90;;;;;;4977949;28;20065;-96
2021/08/18 06:56:39;;;;;;;5.28;2.72;;;16.00;99.90;;;;;;5008826;28;20068;-94
2021/08/18 07:01:37;;;;;;;3.80;2.50;;;16.00;99.90;;;;;;5011610;28;20047;-96
2021/08/18 07:04:06;;;;;;;6.57;2.33;;;16.10;99.90;;;;;;4961088;28;20053;-93
2021/08/18 07:06:33;;;;;;;4.88;2.30;;;16.10;99.90;;;;;;4991711;28;20085;-93
2021/08/18 07:09:00;;;;;;;5.18;2.63;;;16.10;99.90;;;;;;4980158;28;20105;-93
2021/08/18 07:11:28;;;;;;;8.18;3.28;;;16.10;99.90;;;;;;4993604;28;20026;-96
2021/08/18 07:14:00;;;;;;;6.03;2.53;;;16.10;99.90;;;;;;4979315;28;20085;-96
2021/08/18 07:16:27;;;;;;;5.70;2.72;;;16.30;99.90;;;;;;4997415;28;20022;-93
2021/08/18 07:18:56;;;;;;;5.95;3.00;;;16.30;99.90;;;;;;4978819;28;20042;-94
2021/08/18 07:21:23;;;;;;;5.80;2.67;;;16.30;99.90;;;;;;4995041;28;20026;-93
2021/08/18 07:23:50;;;;;;;5.28;1.75;;;16.40;99.90;;;;;;4977075;28;20046;-93
2021/08/18 07:26:16;;;;;;;4.75;2.47;;;16.40;99.90;;;;;;4977397;28;20026;-93
2021/08/18 07:28:42;;;;;;;5.82;2.75;;;16.40;99.90;;;;;;4979428;28;20046;-95
2021/08/18 07:31:09;;;;;;;6.78;3.35;;;16.30;99.90;;;;;;4976662;28;20050;-91
2021/08/18 07:33:35;;;;;;;5.03;3.28;;;16.30;99.90;;;;;;4979515;28;20064;-95
2021/08/18 07:36:01;;;;;;;10.80;4.75;;;16.30;99.90;;;;;;4996571;28;20040;-95
2021/08/18 07:38:26;;;;;;;8.32;4.60;;;16.20;99.90;;;;;;4996436;28;20486;-94
2021/08/18 07:40:53;;;;;;;5.32;3.65;;;16.20;99.90;;;;;;4996184;28;20106;-95
2021/08/18 07:43:27;;;;;;;7.55;3.35;;;16.30;99.90;;;;;;4995818;28;20089;-95
2021/08/18 07:45:53;;;;;;;3.90;2.97;;;16.30;99.90;;;;;;4992806;28;20045;-91
2021/08/18 07:48:19;;;;;;;4.47;3.25;;;16.50;99.90;;;;;;4975282;28;20042;-91
2021/08/18 07:50:47;;;;;;;5.45;3.15;;;16.60;99.90;;;;;;4994850;28;20030;-94
2021/08/18 07:53:13;;;;;;;3.42;1.95;;;16.60;99.90;;;;;;4992815;28;20041;-94
2021/08/18 07:55:39;;;;;;;3.65;1.75;;;16.80;99.90;;;;;;4993958;28;20078;-95
2021/08/18 07:58:04;;;;;;;6.90;2.35;;;16.80;99.90;;;;;;4989899;28;20038;-93
2021/08/18 08:00:31;;;;;;;3.15;1.30;;;16.90;99.90;;;;;;4947223;29;20055;-94
2021/08/18 08:02:57;;;;;;;3.53;2.28;;;16.90;99.90;;;;;;4936239;29;20042;-94
2021/08/18 08:05:23;;;;;;;3.78;2.00;;;16.90;99.90;;;;;;4936373;29;20035;-93
2021/08/18 08:07:51;;;;;;;3.47;1.65;;;16.80;99.90;;;;;;4937421;29;20039;-96
2021/08/18 08:10:17;;;;;;;2.45;1.20;;;16.80;99.90;;;;;;4970616;29;20110;-95
2021/08/18 08:12:43;;;;;;;3.88;1.45;;;16.90;99.90;;;;;;4969296;29;20083;-93
2021/08/18 08:15:10;;;;;;;5.45;1.40;;;16.90;99.90;;;;;;4935781;29;20095;-91
2021/08/18 08:17:36;;;;;;;5.60;1.95;;;16.90;99.90;;;;;;4949222;28;20027;-94
2021/08/18 08:20:05;;;;;;;2.72;1.10;;;16.90;99.90;;;;;;4961160;29;20024;-96
2021/08/18 08:22:32;;;;;;;4.38;1.65;;;16.80;99.90;;;;;;4966619;29;20031;-92
2021/08/18 08:24:57;;;;;;;3.72;1.02;;;16.90;99.90;;;;;;4969921;29;20071;-93
2021/08/18 08:27:23;;;;;;;5.60;1.48;;;17.10;99.90;;;;;;4956580;29;20027;-93
2021/08/18 08:29:53;;;;;;;2.13;0.90;;;17.00;99.90;;;;;;4954757;29;20074;-91
2021/08/18 08:32:19;;;;;;;2.30;1.00;;;17.10;99.90;;;;;;4954226;29;20039;-91
2021/08/18 08:34:44;;;;;;;3.47;0.85;;;17.10;99.90;;;;;;4953567;29;20031;-95
2021/08/18 08:37:10;;;;;;;2.10;1.05;;;17.10;99.90;;;;;;4956117;29;20035;-94
2021/08/18 08:39:45;;;;;;;2.30;0.70;;;17.10;99.90;;;;;;4953355;29;20031;-92
2021/08/18 08:42:14;;;;;;;3.03;0.90;;;17.20;99.90;;;;;;4952940;29;20135;-94
2021/08/18 08:44:40;;;;;;;2.53;0.93;;;17.30;99.90;;;;;;4970212;29;20038;-96
2021/08/18 08:47:08;;;;;;;2.33;0.70;;;17.20;99.90;;;;;;4970531;29;20035;-94
2021/08/18 08:49:37;;;;;;;2.63;1.02;;;17.20;99.90;;;;;;4969840;29;20109;-93
2021/08/18 08:52:04;;;;;;;2.65;0.68;;;17.20;99.90;;;;;;4964926;29;20031;-96
2021/08/18 08:54:29;;;;;;;1.95;0.70;;;17.30;99.90;;;;;;4944224;29;20034;-92
2021/08/18 08:56:55;;;;;;;3.25;0.70;;;17.40;99.90;;;;;;4933518;29;20031;-91
2021/08/18 08:59:26;;;;;;;1.88;0.60;;;17.60;99.90;;;;;;4933798;29;20130;-94
2021/08/18 09:02:12;;;;;;;3.28;0.80;;;17.70;99.90;;;;;;4950006;29;20063;-91
2021/08/18 09:04:44;;;;;;;2.85;0.70;;;17.80;99.90;;;;;;4932670;29;20043;-94
2021/08/18 09:07:21;;;;;;;4.38;0.60;;;18.00;99.90;;;;;;4948658;29;20476;-90
2021/08/18 09:09:51;;;;;;;2.85;0.90;;;18.20;99.90;;;;;;4932429;29;20111;-91
2021/08/18 09:12:19;;;;;;;3.78;1.33;;;18.10;99.90;;;;;;4932582;29;20160;-92
2021/08/18 09:14:45;;;;;;;5.85;1.80;;;18.10;99.90;;;;;;4932863;29;20032;-94
2021/08/18 09:17:32;;;;;;;5.38;1.38;;;18.10;99.90;;;;;;4939552;29;20058;-90
2021/08/18 09:20:08;;;;;;;5.05;2.15;;;18.10;99.90;;;;;;4934152;29;20036;-96
2021/08/18 09:22:39;;;;;;;3.08;1.45;;;18.10;99.90;;;;;;4933067;29;20035;-95
2021/08/18 09:25:11;;;;;;;2.75;1.10;;;18.40;99.90;;;;;;4948456;29;20034;-93
2021/08/18 09:27:37;;;;;;;3.45;1.83;;;18.80;99.90;;;;;;4933161;29;20456;-91
2021/08/18 09:30:05;;;;;;;2.25;1.45;;;18.60;99.90;;;;;;4940132;29;20038;-95
2021/08/18 09:32:33;;;;;;;7.47;3.38;;;18.90;99.90;;;;;;4953897;29;20091;-94
2021/08/18 09:35:08;;;;;;;3.30;2.83;;;18.40;99.90;;;;;;4952338;29;20039;-92
2021/08/18 09:37:34;;;;;;;6.68;2.60;;;18.60;99.90;;;;;;4952680;29;20032;-96
2021/08/18 09:40:12;;;;;;;4.22;3.65;;;18.50;99.90;;;;;;4953475;29;20031;-91
2021/08/18 09:42:38;;;;;;;5.13;3.60;;;18.20;99.90;;;;;;4968044;29;20050;-88
2021/08/18 09:45:17;;;;;;;6.35;3.28;;;18.40;99.90;;;;;;4952130;29;20051;-95
2021/08/18 09:47:53;;;;;;;7.20;4.00;;;18.50;99.90;;;;;;4960157;23;20061;-89
2021/08/18 09:50:23;;;;;;;6.78;4.03;;;18.60;99.90;;;;;;4969358;29;20039;-95
2021/08/18 09:52:50;;;;;;;9.25;5.20;;;18.50;99.90;;;;;;4969882;29;20027;-94
2021/08/18 09:55:24;;;;;;;6.15;5.47;;;18.50;99.90;;;;;;4971378;29;20027;-94
2021/08/18 09:57:51;;;;;;;10.23;8.15;;;18.50;99.90;;;;;;4968432;29;20031;-95
2021/08/18 10:00:18;;;;;;;9.68;7.07;;;18.70;99.90;;;;;;4967944;29;20058;-94
2021/08/18 10:02:44;;;;;;;8.65;6.88;;;18.90;99.90;;;;;;4968664;29;20042;-95
2021/08/18 10:05:12;;;;;;;11.77;10.52;;;19.10;99.90;;;;;;4985702;28;20027;-94
2021/08/18 10:07:38;;;;;;;8.93;8.02;;;18.80;99.90;;;;;;4952016;29;20039;-93
2021/08/18 10:10:04;;;;;;;9.00;7.50;;;19.30;99.90;;;;;;4984085;28;20106;-95
2021/08/18 10:12:33;;;;;;;10.48;9.48;;;19.10;99.90;;;;;;4968525;29;20028;-96
2021/08/18 10:15:06;;;;;;;13.85;10.98;;;19.00;99.90;;;;;;4968691;29;20039;-95
2021/08/18 10:17:42;;;;;;;12.95;11.68;;;19.10;99.90;;;;;;4970905;29;20043;-96
2021/08/18 10:20:21;;;;;;;13.95;11.95;;;19.10;99.90;;;;;;4968788;29;20035;-95
2021/08/18 10:23:01;;;;;;;13.52;12.23;;;19.20;99.90;;;;;;4962981;29;20027;-95
2021/08/18 10:25:45;;;;;;;13.50;12.20;;;19.30;99.90;;;;;;4932569;29;20039;-96
2021/08/18 10:28:13;;;;;;;13.68;12.23;;;19.10;99.90;;;;;;4950067;29;20056;-94
2021/08/18 10:30:52;;;;;;;11.10;9.98;;;18.90;99.90;;;;;;4956644;29;20104;-95
2021/08/18 10:33:55;;;;;;;12.15;10.93;;;19.10;99.90;;;;;;4941164;29;20055;-93
2021/08/18 10:36:43;;;;;;;9.80;8.82;;;19.50;99.90;;;;;;4948183;29;20039;-93
2021/08/18 10:39:18;;;;;;;10.65;9.43;;;19.70;99.90;;;;;;4949369;29;20313;-94
2021/08/18 10:42:17;;;;;;;9.68;8.68;;;19.60;99.90;;;;;;4965434;28;20482;-92
2021/08/18 10:44:53;;;;;;;6.25;5.60;;;19.50;99.90;;;;;;4948201;29;20027;-90
2021/08/18 10:47:34;;;;;;;6.03;5.38;;;19.70;99.90;;;;;;4977795;28;20059;-95
2021/08/18 10:50:12;;;;;;;5.82;4.95;;;19.70;99.90;;;;;;4984066;28;20162;-93
2021/08/18 10:52:42;;;;;;;6.65;5.38;;;20.00;99.90;;;;;;4959151;28;20065;-92
2021/08/18 10:55:18;;;;;;;6.45;3.97;;;19.60;99.90;;;;;;4966458;28;20103;-94
2021/08/18 10:57:49;;;;;;;6.65;4.70;;;19.70;99.90;;;;;;4966807;29;20091;-90
2021/08/18 11:00:22;;;;;;;6.10;5.13;;;19.70;99.90;;;;;;4950822;29;20035;-93
2021/08/18 11:02:52;;;;;;;9.18;5.72;;;19.40;99.90;;;;;;4966100;29;20042;-89
2021/08/18 11:05:28;;;;;;;;;;;19.30;99.90;;;;;;4950318;29;20027;-90
2021/08/18 11:08:14;;;;;;;6.80;5.35;;;19.70;99.90;;;;;;4967219;28;19917;-87
2021/08/18 11:10:54;;;;;;;5.95;5.35;;;19.60;99.90;;;;;;4965557;29;20042;-86
2021/08/18 11:13:40;;;;;;;9.60;6.40;;;19.40;99.90;;;;;;4966029;29;20035;-88
2021/08/18 11:16:14;;;;;;;5.75;5.25;;;19.20;99.90;;;;;;4967203;28;20031;-88
2021/08/18 11:18:49;;;;;;;7.15;4.53;;;18.90;99.90;;;;;;4985853;28;20045;-89
2021/08/18 11:21:17;;;;;;;6.10;4.53;;;18.50;99.90;;;;;;4986730;28;20115;-89
2021/08/18 11:23:52;;;;;;;4.18;3.42;;;17.80;99.90;;;;;;4968861;28;20035;-92
2021/08/18 11:26:20;;;;;;;5.03;3.28;;;17.60;99.90;;;;;;4971281;28;20475;-91
2021/08/18 11:28:59;;;;;;;6.10;4.13;;;17.60;99.90;;;;;;4969574;28;20042;-90
2021/08/18 11:31:40;;;;;;;3.90;3.53;;;17.70;99.90;;;;;;4963587;29;20081;-90
2021/08/18 11:34:18;;;;;;;4.30;2.80;;;18.00;99.90;;;;;;4960323;28;20045;-89
2021/08/18 11:36:45;;;;;;;6.53;4.43;;;18.40;99.90;;;;;;4985377;28;20107;-90
2021/08/18 11:39:25;;;;;;;5.85;4.68;;;18.50;99.90;;;;;;4985334;28;20035;-89
2021/08/18 11:41:51;;;;;;;4.55;3.47;;;19.10;99.90;;;;;;4985557;28;20030;-89
2021/08/18 11:44:27;;;;;;;7.25;6.28;;;19.30;99.90;;;;;;4985815;28;20114;-91
2021/08/18 11:46:55;;;;;;;4.25;3.72;;;19.10;99.90;;;;;;4990288;23;20042;-90
2021/08/18 11:49:25;;;;;;;3.90;3.15;;;19.30;99.90;;;;;;4959973;28;20344;-89
2021/08/18 11:51:51;;;;;;;4.43;2.30;;;19.30;99.90;;;;;;4952963;28;20068;-87
2021/08/18 11:54:22;;;;;;;3.13;2.60;;;19.60;99.90;;;;;;4945170;28;20054;-89
2021/08/18 11:56:57;;;;;;;2.97;2.00;;;19.80;99.90;;;;;;4954807;28;20027;-92
2021/08/18 11:59:23;;;;;;;2.78;1.45;;;20.30;99.90;;;;;;4956269;28;20039;-90
2021/08/18 12:01:52;;;;;;;1.90;1.23;;;20.30;99.90;;;;;;4956837;28;20050;-88
2021/08/18 12:04:20;;;;;;;2.38;1.10;;;20.10;99.90;;;;;;4956293;28;20391;-89
2021/08/18 12:06:47;;;;;;;1.45;0.75;;;20.40;99.90;;;;;;4956268;28;20030;-88
2021/08/18 12:09:21;;;;;;;2.00;1.00;;;20.40;99.90;;;;;;4956233;28;20043;-92
2021/08/18 12:11:48;;;;;;;3.25;0.75;;;20.10;99.90;;;;;;4956515;28;20179;-91
2021/08/18 12:14:18;;;;;;;1.42;0.80;;;19.80;99.90;;;;;;4956097;28;20054;-90
2021/08/18 12:16:58;;;;;;;2.05;0.80;;;19.80;99.90;;;;;;4962532;28;20023;-90
2021/08/18 12:19:26;;;;;;;2.75;1.58;;;19.90;99.90;;;;;;4956424;28;20066;-89
2021/08/18 12:22:13;;;;;;;2.63;1.60;;;19.60;99.90;;;;;;4956084;28;20051;-90
2021/08/18 12:24:44;;;;;;;3.28;2.75;;;19.40;99.90;;;;;;4955370;28;20039;-91
2021/08/18 12:27:14;;;;;;;4.20;3.72;;;19.40;99.90;;;;;;4971964;28;20125;-92
2021/08/18 12:29:40;;;;;;;7.70;4.53;;;19.10;99.90;;;;;;4976524;28;20038;-93
2021/08/18 12:32:09;;;;;;;5.30;4.50;;;18.70;99.90;;;;;;4981222;28;20027;-93
2021/08/18 12:34:59;;;;;;;8.43;6.45;;;18.60;99.90;;;;;;4959909;28;20058;-90
2021/08/18 12:37:35;;;;;;;7.03;6.32;;;18.50;99.90;;;;;;4955282;28;20035;-90
2021/08/18 12:40:20;;;;;;;7.07;6.25;;;18.30;99.90;;;;;;4955183;28;20054;-94
2021/08/18 12:42:58;;;;;;;7.75;6.60;;;18.30;99.90;;;;;;4956394;28;20034;-96
2021/08/18 12:45:26;;;;;;;7.10;6.40;;;18.40;99.90;;;;;;4955891;28;20034;-93
2021/08/18 12:48:02;;;;;;;9.60;6.72;;;18.50;99.90;;;;;;4956430;28;20050;-94
2021/08/18 12:50:37;;;;;;;8.25;7.45;;;18.50;99.90;;;;;;4945751;29;20035;-94
2021/08/18 12:53:05;;;;;;;7.13;6.15;;;18.60;99.90;;;;;;4943436;28;20055;-92
2021/08/18 12:55:31;;;;;;;6.07;5.47;;;18.80;99.90;;;;;;4971821;28;20100;-91
2021/08/18 12:57:57;;;;;;;9.30;6.80;;;19.00;99.90;;;;;;4972264;28;20149;-92
2021/08/18 13:00:25;;;;;;;7.25;6.50;;;19.10;99.90;;;;;;4972416;28;20026;-92
2021/08/18 13:02:51;;;;;;;12.38;7.43;;;19.10;99.90;;;;;;4972209;28;20054;-90